South Cle Elum, Washington
Current Conditions -  °F | °C
As of 8:53 AM on Friday 24 Oct 2014 (Local Time) from KELN Reporting Station
Clear Clear  
Wind Chill: 42°   Ceiling: Unl
Heat Index: 42°   Visibility: 10mi
Dew Point: 38°   Wind: 3mph
Humidity: 85%   Direction: 60°ENE
Pressure: 30.07"   Gusts: NA
Location:  47.19°N, 120.95°W
Report Text: KELN 241553Z AUTO 06003KT 10SM CLR 06/03 A3007 RMK AO2 SLP188 T00560033
Loading
Personal Weather Stations






























Interactive Weather Map
Tropical Storm Tracking
New forecast layout! Learn more

10-Day Weather Forecast

Advertisements
Track Severe Weather on mobile